sensor_id;sensor_type;location;lat;lon;timestamp;P1;durP1;ratioP1;P2;durP2;ratioP2
515;SDS011;244;48.508;9.052;2024-03-06T00:00:57;1.20;;;1.10;;
515;SDS011;244;48.508;9.052;2024-03-06T00:03:24;2.50;;;2.30;;
515;SDS011;244;48.508;9.052;2024-03-06T00:05:53;1.13;;;1.03;;
515;SDS011;244;48.508;9.052;2024-03-06T00:08:20;4.73;;;0.90;;
515;SDS011;244;48.508;9.052;2024-03-06T00:10:46;1.27;;;0.80;;
515;SDS011;244;48.508;9.052;2024-03-06T00:13:13;2.43;;;1.20;;
515;SDS011;244;48.508;9.052;2024-03-06T00:15:40;2.00;;;1.50;;
515;SDS011;244;48.508;9.052;2024-03-06T00:18:07;1.10;;;0.93;;
515;SDS011;244;48.508;9.052;2024-03-06T00:20:35;1.57;;;1.10;;
515;SDS011;244;48.508;9.052;2024-03-06T00:23:03;1.37;;;1.27;;
515;SDS011;244;48.508;9.052;2024-03-06T00:25:30;1.37;;;1.10;;
515;SDS011;244;48.508;9.052;2024-03-06T00:27:57;1.87;;;0.83;;
515;SDS011;244;48.508;9.052;2024-03-06T00:30:24;1.43;;;1.33;;
515;SDS011;244;48.508;9.052;2024-03-06T00:32:51;1.40;;;1.30;;
515;SDS011;244;48.508;9.052;2024-03-06T00:35:18;1.00;;;0.90;;
515;SDS011;244;48.508;9.052;2024-03-06T00:37:45;0.77;;;0.73;;
515;SDS011;244;48.508;9.052;2024-03-06T00:40:14;0.90;;;0.80;;
515;SDS011;244;48.508;9.052;2024-03-06T00:42:41;1.47;;;1.37;;
515;SDS011;244;48.508;9.052;2024-03-06T00:45:08;0.87;;;0.77;;
515;SDS011;244;48.508;9.052;2024-03-06T00:47:36;1.60;;;1.50;;
515;SDS011;244;48.508;9.052;2024-03-06T00:50:03;1.47;;;1.23;;
515;SDS011;244;48.508;9.052;2024-03-06T00:52:32;1.43;;;1.40;;
515;SDS011;244;48.508;9.052;2024-03-06T00:54:59;1.33;;;1.20;;
515;SDS011;244;48.508;9.052;2024-03-06T00:57:27;1.03;;;0.90;;
515;SDS011;244;48.508;9.052;2024-03-06T00:59:54;1.43;;;1.13;;
515;SDS011;244;48.508;9.052;2024-03-06T01:02:21;0.90;;;0.70;;
515;SDS011;244;48.508;9.052;2024-03-06T01:04:48;0.70;;;0.60;;
515;SDS011;244;48.508;9.052;2024-03-06T01:07:15;3.60;;;1.00;;
515;SDS011;244;48.508;9.052;2024-03-06T01:09:42;4.60;;;1.57;;
515;SDS011;244;48.508;9.052;2024-03-06T01:12:09;0.97;;;0.87;;
515;SDS011;244;48.508;9.052;2024-03-06T01:14:37;1.60;;;1.57;;
515;SDS011;244;48.508;9.052;2024-03-06T01:17:04;1.33;;;1.23;;
515;SDS011;244;48.508;9.052;2024-03-06T01:19:31;1.97;;;1.00;;
515;SDS011;244;48.508;9.052;2024-03-06T01:21:58;1.30;;;1.20;;
515;SDS011;244;48.508;9.052;2024-03-06T01:24:25;1.03;;;0.93;;
515;SDS011;244;48.508;9.052;2024-03-06T01:26:52;1.30;;;1.13;;
515;SDS011;244;48.508;9.052;2024-03-06T01:29:19;2.20;;;1.33;;
515;SDS011;244;48.508;9.052;2024-03-06T01:31:47;1.20;;;1.10;;
515;SDS011;244;48.508;9.052;2024-03-06T01:34:14;2.40;;;1.63;;
515;SDS011;244;48.508;9.052;2024-03-06T01:36:41;1.03;;;0.73;;
515;SDS011;244;48.508;9.052;2024-03-06T01:39:08;0.70;;;0.60;;
515;SDS011;244;48.508;9.052;2024-03-06T01:41:35;1.70;;;0.90;;
515;SDS011;244;48.508;9.052;2024-03-06T01:44:02;1.23;;;1.20;;
515;SDS011;244;48.508;9.052;2024-03-06T01:46:29;1.03;;;0.93;;
515;SDS011;244;48.508;9.052;2024-03-06T01:48:57;1.27;;;0.93;;
515;SDS011;244;48.508;9.052;2024-03-06T01:51:25;1.03;;;1.00;;
515;SDS011;244;48.508;9.052;2024-03-06T01:53:52;1.53;;;1.43;;
515;SDS011;244;48.508;9.052;2024-03-06T01:56:20;1.80;;;1.70;;
515;SDS011;244;48.508;9.052;2024-03-06T01:58:47;2.30;;;1.30;;
515;SDS011;244;48.508;9.052;2024-03-06T02:01:14;1.67;;;1.23;;
515;SDS011;244;48.508;9.052;2024-03-06T02:03:42;1.10;;;1.00;;
515;SDS011;244;48.508;9.052;2024-03-06T02:06:12;1.20;;;1.00;;
515;SDS011;244;48.508;9.052;2024-03-06T02:08:44;1.17;;;1.07;;
515;SDS011;244;48.508;9.052;2024-03-06T02:11:11;1.67;;;1.60;;
515;SDS011;244;48.508;9.052;2024-03-06T02:13:38;1.30;;;1.20;;
515;SDS011;244;48.508;9.052;2024-03-06T02:16:06;1.37;;;1.27;;
515;SDS011;244;48.508;9.052;2024-03-06T02:18:34;1.57;;;1.47;;
515;SDS011;244;48.508;9.052;2024-03-06T02:21:03;1.33;;;1.23;;
515;SDS011;244;48.508;9.052;2024-03-06T02:23:32;1.40;;;1.13;;
515;SDS011;244;48.508;9.052;2024-03-06T02:25:59;1.40;;;1.30;;
515;SDS011;244;48.508;9.052;2024-03-06T02:28:27;1.30;;;1.20;;
515;SDS011;244;48.508;9.052;2024-03-06T02:30:55;1.80;;;1.00;;
515;SDS011;244;48.508;9.052;2024-03-06T02:33:22;1.00;;;0.90;;
515;SDS011;244;48.508;9.052;2024-03-06T02:35:48;0.97;;;0.87;;
515;SDS011;244;48.508;9.052;2024-03-06T02:38:17;1.67;;;1.57;;
515;SDS011;244;48.508;9.052;2024-03-06T02:40:44;1.47;;;1.20;;
515;SDS011;244;48.508;9.052;2024-03-06T02:43:11;1.30;;;1.07;;
515;SDS011;244;48.508;9.052;2024-03-06T02:45:37;1.83;;;0.93;;
515;SDS011;244;48.508;9.052;2024-03-06T02:48:05;1.13;;;0.87;;
515;SDS011;244;48.508;9.052;2024-03-06T02:50:32;0.80;;;0.70;;
515;SDS011;244;48.508;9.052;2024-03-06T02:52:59;1.07;;;0.87;;
515;SDS011;244;48.508;9.052;2024-03-06T02:55:27;0.80;;;0.70;;
515;SDS011;244;48.508;9.052;2024-03-06T02:57:55;1.20;;;1.00;;
515;SDS011;244;48.508;9.052;2024-03-06T03:00:22;0.60;;;0.50;;
515;SDS011;244;48.508;9.052;2024-03-06T03:02:49;0.90;;;0.80;;
515;SDS011;244;48.508;9.052;2024-03-06T03:05:16;1.13;;;1.00;;
515;SDS011;244;48.508;9.052;2024-03-06T03:07:43;0.87;;;0.80;;
515;SDS011;244;48.508;9.052;2024-03-06T03:10:10;1.13;;;1.03;;
515;SDS011;244;48.508;9.052;2024-03-06T03:12:39;0.53;;;0.50;;
515;SDS011;244;48.508;9.052;2024-03-06T03:15:06;1.03;;;0.87;;
515;SDS011;244;48.508;9.052;2024-03-06T03:17:34;1.10;;;1.10;;
515;SDS011;244;48.508;9.052;2024-03-06T03:20:01;0.73;;;0.63;;
515;SDS011;244;48.508;9.052;2024-03-06T03:22:35;0.90;;;0.90;;
515;SDS011;244;48.508;9.052;2024-03-06T03:25:02;1.13;;;1.03;;
515;SDS011;244;48.508;9.052;2024-03-06T03:27:32;1.23;;;0.73;;
515;SDS011;244;48.508;9.052;2024-03-06T03:30:00;1.37;;;1.27;;
515;SDS011;244;48.508;9.052;2024-03-06T03:32:28;0.60;;;0.60;;
515;SDS011;244;48.508;9.052;2024-03-06T03:34:55;1.20;;;0.53;;
515;SDS011;244;48.508;9.052;2024-03-06T03:37:21;0.90;;;0.80;;
515;SDS011;244;48.508;9.052;2024-03-06T03:39:48;0.40;;;0.40;;
515;SDS011;244;48.508;9.052;2024-03-06T03:42:15;0.97;;;0.90;;
515;SDS011;244;48.508;9.052;2024-03-06T03:44:42;1.37;;;1.27;;
515;SDS011;244;48.508;9.052;2024-03-06T03:47:10;1.77;;;1.67;;
515;SDS011;244;48.508;9.052;2024-03-06T03:49:37;3.60;;;1.60;;
515;SDS011;244;48.508;9.052;2024-03-06T03:52:04;1.10;;;0.80;;
515;SDS011;244;48.508;9.052;2024-03-06T03:54:32;0.80;;;0.73;;
515;SDS011;244;48.508;9.052;2024-03-06T03:57:00;0.60;;;0.60;;
515;SDS011;244;48.508;9.052;2024-03-06T03:59:27;1.27;;;1.17;;
515;SDS011;244;48.508;9.052;2024-03-06T04:01:54;0.93;;;0.70;;
515;SDS011;244;48.508;9.052;2024-03-06T04:04:23;2.77;;;1.17;;
515;SDS011;244;48.508;9.052;2024-03-06T04:06:50;1.83;;;1.73;;
515;SDS011;244;48.508;9.052;2024-03-06T04:09:17;0.90;;;0.80;;
515;SDS011;244;48.508;9.052;2024-03-06T04:11:44;0.50;;;0.50;;
515;SDS011;244;48.508;9.052;2024-03-06T04:14:11;2.23;;;2.03;;
515;SDS011;244;48.508;9.052;2024-03-06T04:16:38;1.90;;;1.23;;
515;SDS011;244;48.508;9.052;2024-03-06T04:19:05;2.10;;;0.90;;
515;SDS011;244;48.508;9.052;2024-03-06T04:21:33;1.33;;;1.20;;
515;SDS011;244;48.508;9.052;2024-03-06T04:24:00;1.53;;;1.40;;
515;SDS011;244;48.508;9.052;2024-03-06T04:26:27;1.47;;;1.23;;
515;SDS011;244;48.508;9.052;2024-03-06T04:28:54;1.20;;;1.10;;
515;SDS011;244;48.508;9.052;2024-03-06T04:31:20;0.97;;;0.87;;
515;SDS011;244;48.508;9.052;2024-03-06T04:33:48;1.73;;;1.57;;
515;SDS011;244;48.508;9.052;2024-03-06T04:36:15;1.63;;;1.53;;
515;SDS011;244;48.508;9.052;2024-03-06T04:38:43;1.30;;;1.20;;
515;SDS011;244;48.508;9.052;2024-03-06T04:41:10;1.73;;;1.37;;
515;SDS011;244;48.508;9.052;2024-03-06T04:43:37;1.63;;;1.43;;
515;SDS011;244;48.508;9.052;2024-03-06T04:46:04;1.00;;;0.93;;
515;SDS011;244;48.508;9.052;2024-03-06T04:48:31;1.30;;;1.03;;
515;SDS011;244;48.508;9.052;2024-03-06T04:50:57;1.30;;;1.07;;
515;SDS011;244;48.508;9.052;2024-03-06T04:53:24;1.47;;;1.37;;
515;SDS011;244;48.508;9.052;2024-03-06T04:55:53;1.70;;;1.60;;
515;SDS011;244;48.508;9.052;2024-03-06T04:58:20;0.83;;;0.73;;
515;SDS011;244;48.508;9.052;2024-03-06T05:00:46;1.37;;;1.27;;
515;SDS011;244;48.508;9.052;2024-03-06T05:03:13;1.63;;;1.53;;
515;SDS011;244;48.508;9.052;2024-03-06T05:05:41;3.00;;;1.33;;
515;SDS011;244;48.508;9.052;2024-03-06T05:08:08;1.77;;;1.43;;
515;SDS011;244;48.508;9.052;2024-03-06T05:10:35;1.50;;;1.47;;
515;SDS011;244;48.508;9.052;2024-03-06T05:13:04;1.47;;;1.37;;
515;SDS011;244;48.508;9.052;2024-03-06T05:15:31;3.03;;;1.83;;
515;SDS011;244;48.508;9.052;2024-03-06T05:17:58;0.87;;;0.87;;
515;SDS011;244;48.508;9.052;2024-03-06T05:20:25;0.97;;;0.90;;
515;SDS011;244;48.508;9.052;2024-03-06T05:22:52;0.90;;;0.80;;
515;SDS011;244;48.508;9.052;2024-03-06T05:25:19;0.80;;;0.70;;
515;SDS011;244;48.508;9.052;2024-03-06T05:27:46;1.67;;;1.57;;
515;SDS011;244;48.508;9.052;2024-03-06T05:30:15;1.20;;;1.00;;
515;SDS011;244;48.508;9.052;2024-03-06T05:32:42;1.40;;;1.30;;
515;SDS011;244;48.508;9.052;2024-03-06T05:35:09;3.23;;;1.57;;
515;SDS011;244;48.508;9.052;2024-03-06T05:37:37;1.13;;;1.03;;
515;SDS011;244;48.508;9.052;2024-03-06T05:40:04;1.70;;;1.63;;
515;SDS011;244;48.508;9.052;2024-03-06T05:42:34;1.40;;;1.30;;
515;SDS011;244;48.508;9.052;2024-03-06T05:45:00;1.03;;;0.97;;
515;SDS011;244;48.508;9.052;2024-03-06T05:47:32;0.90;;;0.80;;
515;SDS011;244;48.508;9.052;2024-03-06T05:49:59;1.93;;;1.83;;
515;SDS011;244;48.508;9.052;2024-03-06T05:52:29;1.17;;;1.10;;
515;SDS011;244;48.508;9.052;2024-03-06T05:54:56;1.80;;;1.33;;
515;SDS011;244;48.508;9.052;2024-03-06T05:57:23;1.40;;;1.30;;
515;SDS011;244;48.508;9.052;2024-03-06T05:59:50;1.33;;;1.20;;
515;SDS011;244;48.508;9.052;2024-03-06T06:02:17;1.30;;;1.20;;
515;SDS011;244;48.508;9.052;2024-03-06T06:04:46;1.27;;;1.17;;
515;SDS011;244;48.508;9.052;2024-03-06T06:07:13;2.93;;;2.73;;
515;SDS011;244;48.508;9.052;2024-03-06T06:09:40;1.60;;;1.50;;
515;SDS011;244;48.508;9.052;2024-03-06T06:12:07;0.70;;;0.60;;
515;SDS011;244;48.508;9.052;2024-03-06T06:14:34;1.20;;;1.13;;
515;SDS011;244;48.508;9.052;2024-03-06T06:17:01;2.83;;;2.63;;
515;SDS011;244;48.508;9.052;2024-03-06T06:19:28;1.80;;;1.30;;
515;SDS011;244;48.508;9.052;2024-03-06T06:21:57;1.30;;;1.20;;
515;SDS011;244;48.508;9.052;2024-03-06T06:24:24;1.23;;;1.00;;
515;SDS011;244;48.508;9.052;2024-03-06T06:26:51;1.70;;;1.60;;
515;SDS011;244;48.508;9.052;2024-03-06T06:29:18;1.50;;;1.40;;
515;SDS011;244;48.508;9.052;2024-03-06T06:31:45;2.60;;;1.60;;
515;SDS011;244;48.508;9.052;2024-03-06T06:34:12;1.50;;;1.43;;
515;SDS011;244;48.508;9.052;2024-03-06T06:36:39;2.70;;;1.00;;
515;SDS011;244;48.508;9.052;2024-03-06T06:39:13;4.40;;;1.17;;
515;SDS011;244;48.508;9.052;2024-03-06T06:41:41;1.13;;;1.00;;
515;SDS011;244;48.508;9.052;2024-03-06T06:44:08;1.40;;;1.30;;
515;SDS011;244;48.508;9.052;2024-03-06T06:46:35;1.43;;;1.37;;
515;SDS011;244;48.508;9.052;2024-03-06T06:49:02;1.27;;;1.17;;
515;SDS011;244;48.508;9.052;2024-03-06T06:51:29;1.87;;;1.80;;
515;SDS011;244;48.508;9.052;2024-03-06T06:53:56;1.17;;;0.87;;
515;SDS011;244;48.508;9.052;2024-03-06T06:56:24;1.53;;;1.43;;
515;SDS011;244;48.508;9.052;2024-03-06T06:58:51;1.07;;;0.97;;
515;SDS011;244;48.508;9.052;2024-03-06T07:01:18;1.07;;;0.90;;
515;SDS011;244;48.508;9.052;2024-03-06T07:03:45;1.73;;;1.63;;
515;SDS011;244;48.508;9.052;2024-03-06T07:06:12;1.20;;;1.10;;
515;SDS011;244;48.508;9.052;2024-03-06T07:08:39;1.60;;;1.50;;
515;SDS011;244;48.508;9.052;2024-03-06T07:11:06;1.07;;;0.97;;
515;SDS011;244;48.508;9.052;2024-03-06T07:13:34;1.70;;;1.60;;
515;SDS011;244;48.508;9.052;2024-03-06T07:16:02;1.37;;;1.30;;
515;SDS011;244;48.508;9.052;2024-03-06T07:18:29;1.17;;;1.07;;
515;SDS011;244;48.508;9.052;2024-03-06T07:20:56;1.23;;;1.13;;
515;SDS011;244;48.508;9.052;2024-03-06T07:23:23;1.50;;;1.40;;
515;SDS011;244;48.508;9.052;2024-03-06T07:25:50;2.43;;;1.47;;
515;SDS011;244;48.508;9.052;2024-03-06T07:28:17;1.47;;;1.37;;
515;SDS011;244;48.508;9.052;2024-03-06T07:30:45;1.37;;;1.30;;
515;SDS011;244;48.508;9.052;2024-03-06T07:33:12;1.90;;;1.80;;
515;SDS011;244;48.508;9.052;2024-03-06T07:35:40;1.17;;;1.10;;
515;SDS011;244;48.508;9.052;2024-03-06T07:38:07;2.27;;;1.70;;
515;SDS011;244;48.508;9.052;2024-03-06T07:40:33;1.77;;;1.67;;
515;SDS011;244;48.508;9.052;2024-03-06T07:43:00;2.23;;;2.03;;
515;SDS011;244;48.508;9.052;2024-03-06T07:45:29;5.70;;;2.60;;
515;SDS011;244;48.508;9.052;2024-03-06T07:47:57;2.70;;;1.70;;
515;SDS011;244;48.508;9.052;2024-03-06T07:50:24;2.70;;;2.50;;
515;SDS011;244;48.508;9.052;2024-03-06T07:52:52;2.70;;;1.80;;
515;SDS011;244;48.508;9.052;2024-03-06T07:55:20;1.50;;;1.40;;
515;SDS011;244;48.508;9.052;2024-03-06T07:57:47;6.10;;;2.00;;
515;SDS011;244;48.508;9.052;2024-03-06T08:00:14;2.30;;;1.00;;
515;SDS011;244;48.508;9.052;2024-03-06T08:02:44;1.23;;;1.10;;
515;SDS011;244;48.508;9.052;2024-03-06T08:05:16;1.03;;;0.93;;
515;SDS011;244;48.508;9.052;2024-03-06T08:07:43;1.10;;;1.00;;
515;SDS011;244;48.508;9.052;2024-03-06T08:10:11;2.93;;;2.20;;
515;SDS011;244;48.508;9.052;2024-03-06T08:12:39;1.17;;;1.13;;
515;SDS011;244;48.508;9.052;2024-03-06T08:15:07;1.83;;;1.50;;
515;SDS011;244;48.508;9.052;2024-03-06T08:17:36;2.50;;;1.57;;
515;SDS011;244;48.508;9.052;2024-03-06T08:20:07;1.97;;;1.90;;
515;SDS011;244;48.508;9.052;2024-03-06T08:22:37;1.50;;;1.40;;
515;SDS011;244;48.508;9.052;2024-03-06T08:25:06;1.47;;;1.37;;
515;SDS011;244;48.508;9.052;2024-03-06T08:27:36;1.83;;;1.73;;
515;SDS011;244;48.508;9.052;2024-03-06T08:30:05;3.60;;;1.20;;
515;SDS011;244;48.508;9.052;2024-03-06T08:32:36;1.23;;;1.00;;
515;SDS011;244;48.508;9.052;2024-03-06T08:35:03;1.73;;;1.63;;
515;SDS011;244;48.508;9.052;2024-03-06T08:37:49;1.90;;;1.80;;
515;SDS011;244;48.508;9.052;2024-03-06T08:40:16;1.27;;;1.20;;
515;SDS011;244;48.508;9.052;2024-03-06T08:42:43;3.33;;;1.73;;
515;SDS011;244;48.508;9.052;2024-03-06T08:45:12;3.10;;;2.90;;
515;SDS011;244;48.508;9.052;2024-03-06T08:47:42;1.07;;;0.80;;
515;SDS011;244;48.508;9.052;2024-03-06T08:50:10;1.60;;;1.43;;
515;SDS011;244;48.508;9.052;2024-03-06T08:52:38;1.30;;;1.20;;
515;SDS011;244;48.508;9.052;2024-03-06T08:55:10;1.50;;;1.40;;
515;SDS011;244;48.508;9.052;2024-03-06T08:57:37;2.37;;;1.03;;
515;SDS011;244;48.508;9.052;2024-03-06T09:00:05;2.33;;;1.53;;
515;SDS011;244;48.508;9.052;2024-03-06T09:02:39;1.40;;;0.90;;
515;SDS011;244;48.508;9.052;2024-03-06T09:05:08;3.90;;;1.77;;
515;SDS011;244;48.508;9.052;2024-03-06T09:07:37;1.70;;;1.60;;
515;SDS011;244;48.508;9.052;2024-03-06T09:10:06;2.30;;;2.10;;
515;SDS011;244;48.508;9.052;2024-03-06T09:12:34;0.93;;;0.90;;
515;SDS011;244;48.508;9.052;2024-03-06T09:15:02;1.90;;;1.17;;
515;SDS011;244;48.508;9.052;2024-03-06T09:17:32;1.87;;;1.03;;
515;SDS011;244;48.508;9.052;2024-03-06T09:19:59;1.10;;;1.00;;
515;SDS011;244;48.508;9.052;2024-03-06T09:22:34;2.13;;;1.97;;
515;SDS011;244;48.508;9.052;2024-03-06T09:25:02;3.63;;;1.30;;
515;SDS011;244;48.508;9.052;2024-03-06T09:27:30;2.50;;;1.60;;
515;SDS011;244;48.508;9.052;2024-03-06T09:30:02;3.23;;;1.40;;
515;SDS011;244;48.508;9.052;2024-03-06T09:32:32;2.47;;;1.67;;
515;SDS011;244;48.508;9.052;2024-03-06T09:34:59;5.80;;;2.37;;
515;SDS011;244;48.508;9.052;2024-03-06T09:37:26;1.67;;;1.57;;
515;SDS011;244;48.508;9.052;2024-03-06T09:39:53;2.40;;;1.43;;
515;SDS011;244;48.508;9.052;2024-03-06T09:42:21;1.23;;;1.20;;
515;SDS011;244;48.508;9.052;2024-03-06T09:44:51;1.40;;;1.30;;
515;SDS011;244;48.508;9.052;2024-03-06T09:47:21;2.10;;;1.50;;
515;SDS011;244;48.508;9.052;2024-03-06T09:49:50;1.23;;;1.17;;
515;SDS011;244;48.508;9.052;2024-03-06T09:52:18;1.27;;;1.17;;
515;SDS011;244;48.508;9.052;2024-03-06T09:54:45;1.20;;;1.10;;
515;SDS011;244;48.508;9.052;2024-03-06T09:57:13;1.23;;;1.13;;
515;SDS011;244;48.508;9.052;2024-03-06T09:59:41;0.90;;;0.87;;
515;SDS011;244;48.508;9.052;2024-03-06T10:02:18;0.83;;;0.77;;
515;SDS011;244;48.508;9.052;2024-03-06T10:04:54;1.73;;;1.63;;
515;SDS011;244;48.508;9.052;2024-03-06T10:07:24;1.40;;;1.30;;
515;SDS011;244;48.508;9.052;2024-03-06T10:09:52;1.23;;;1.10;;
515;SDS011;244;48.508;9.052;2024-03-06T10:12:19;1.47;;;1.27;;
515;SDS011;244;48.508;9.052;2024-03-06T10:14:49;0.50;;;0.47;;
515;SDS011;244;48.508;9.052;2024-03-06T10:17:18;0.83;;;0.73;;
515;SDS011;244;48.508;9.052;2024-03-06T10:19:48;2.00;;;0.80;;
515;SDS011;244;48.508;9.052;2024-03-06T10:22:18;1.43;;;1.10;;
515;SDS011;244;48.508;9.052;2024-03-06T10:24:49;0.60;;;0.60;;
515;SDS011;244;48.508;9.052;2024-03-06T10:27:17;0.90;;;0.80;;
515;SDS011;244;48.508;9.052;2024-03-06T10:29:45;0.93;;;0.87;;
515;SDS011;244;48.508;9.052;2024-03-06T10:32:16;1.03;;;0.93;;
515;SDS011;244;48.508;9.052;2024-03-06T10:34:45;1.23;;;1.03;;
515;SDS011;244;48.508;9.052;2024-03-06T10:37:12;0.87;;;0.77;;
515;SDS011;244;48.508;9.052;2024-03-06T10:39:41;1.00;;;0.90;;
515;SDS011;244;48.508;9.052;2024-03-06T10:42:09;1.23;;;1.13;;
515;SDS011;244;48.508;9.052;2024-03-06T10:44:43;1.37;;;1.27;;
515;SDS011;244;48.508;9.052;2024-03-06T10:47:18;0.83;;;0.73;;
515;SDS011;244;48.508;9.052;2024-03-06T10:49:47;1.10;;;1.00;;
515;SDS011;244;48.508;9.052;2024-03-06T10:52:14;1.53;;;1.03;;
515;SDS011;244;48.508;9.052;2024-03-06T10:54:47;1.17;;;1.00;;
515;SDS011;244;48.508;9.052;2024-03-06T10:57:15;1.50;;;1.40;;
515;SDS011;244;48.508;9.052;2024-03-06T10:59:43;0.77;;;0.63;;
515;SDS011;244;48.508;9.052;2024-03-06T11:02:11;1.13;;;1.13;;
515;SDS011;244;48.508;9.052;2024-03-06T11:04:39;3.67;;;2.37;;
515;SDS011;244;48.508;9.052;2024-03-06T11:07:09;1.97;;;1.87;;
515;SDS011;244;48.508;9.052;2024-03-06T11:09:36;1.33;;;1.07;;
515;SDS011;244;48.508;9.052;2024-03-06T11:12:04;0.80;;;0.50;;
515;SDS011;244;48.508;9.052;2024-03-06T11:14:36;2.70;;;2.33;;
515;SDS011;244;48.508;9.052;2024-03-06T11:17:06;1.83;;;1.73;;
515;SDS011;244;48.508;9.052;2024-03-06T11:25:56;1.70;;;1.60;;
515;SDS011;244;48.508;9.052;2024-03-06T11:28:26;1.67;;;1.10;;
515;SDS011;244;48.508;9.052;2024-03-06T11:31:00;3.07;;;2.27;;
515;SDS011;244;48.508;9.052;2024-03-06T11:33:28;2.90;;;1.60;;
515;SDS011;244;48.508;9.052;2024-03-06T11:36:17;1.63;;;1.20;;
515;SDS011;244;48.508;9.052;2024-03-06T11:38:53;1.30;;;1.20;;
515;SDS011;244;48.508;9.052;2024-03-06T11:41:23;2.70;;;1.70;;
515;SDS011;244;48.508;9.052;2024-03-06T11:43:51;3.73;;;2.57;;
515;SDS011;244;48.508;9.052;2024-03-06T11:46:22;1.43;;;1.33;;
515;SDS011;244;48.508;9.052;2024-03-06T11:48:53;12.20;;;3.13;;
515;SDS011;244;48.508;9.052;2024-03-06T11:51:22;1.43;;;1.33;;
515;SDS011;244;48.508;9.052;2024-03-06T11:53:49;1.87;;;1.80;;
515;SDS011;244;48.508;9.052;2024-03-06T11:56:21;1.57;;;1.47;;
515;SDS011;244;48.508;9.052;2024-03-06T11:58:48;2.27;;;2.10;;
515;SDS011;244;48.508;9.052;2024-03-06T12:01:15;1.80;;;1.70;;
515;SDS011;244;48.508;9.052;2024-03-06T12:03:43;1.87;;;1.77;;
515;SDS011;244;48.508;9.052;2024-03-06T12:06:15;2.47;;;2.27;;
515;SDS011;244;48.508;9.052;2024-03-06T12:08:44;2.73;;;2.53;;
515;SDS011;244;48.508;9.052;2024-03-06T12:11:14;3.37;;;2.60;;
515;SDS011;244;48.508;9.052;2024-03-06T12:13:46;2.87;;;2.47;;
515;SDS011;244;48.508;9.052;2024-03-06T12:16:14;2.10;;;1.87;;
515;SDS011;244;48.508;9.052;2024-03-06T12:18:41;3.33;;;2.17;;
515;SDS011;244;48.508;9.052;2024-03-06T12:21:10;3.00;;;2.50;;
515;SDS011;244;48.508;9.052;2024-03-06T12:23:38;2.53;;;1.23;;
515;SDS011;244;48.508;9.052;2024-03-06T12:26:05;2.70;;;2.50;;
515;SDS011;244;48.508;9.052;2024-03-06T12:28:35;1.90;;;1.80;;
515;SDS011;244;48.508;9.052;2024-03-06T12:31:03;2.70;;;2.47;;
515;SDS011;244;48.508;9.052;2024-03-06T12:33:31;2.00;;;1.60;;
515;SDS011;244;48.508;9.052;2024-03-06T12:36:02;2.20;;;2.00;;
515;SDS011;244;48.508;9.052;2024-03-06T12:38:30;3.73;;;2.40;;
515;SDS011;244;48.508;9.052;2024-03-06T12:40:57;1.93;;;1.80;;
515;SDS011;244;48.508;9.052;2024-03-06T12:43:26;2.60;;;2.40;;
515;SDS011;244;48.508;9.052;2024-03-06T12:45:53;2.90;;;2.40;;
515;SDS011;244;48.508;9.052;2024-03-06T12:48:23;2.90;;;2.63;;
515;SDS011;244;48.508;9.052;2024-03-06T12:50:50;2.87;;;2.60;;
515;SDS011;244;48.508;9.052;2024-03-06T12:53:20;3.33;;;3.13;;
515;SDS011;244;48.508;9.052;2024-03-06T12:55:46;2.87;;;2.20;;
515;SDS011;244;48.508;9.052;2024-03-06T12:58:13;4.40;;;3.77;;
515;SDS011;244;48.508;9.052;2024-03-06T13:00:43;2.60;;;2.40;;
515;SDS011;244;48.508;9.052;2024-03-06T13:03:10;3.90;;;3.17;;
515;SDS011;244;48.508;9.052;2024-03-06T13:05:38;4.00;;;3.67;;
515;SDS011;244;48.508;9.052;2024-03-06T13:08:05;2.90;;;2.53;;
515;SDS011;244;48.508;9.052;2024-03-06T13:10:32;2.70;;;2.33;;
515;SDS011;244;48.508;9.052;2024-03-06T13:13:00;5.73;;;4.03;;
515;SDS011;244;48.508;9.052;2024-03-06T13:15:27;3.83;;;3.37;;
515;SDS011;244;48.508;9.052;2024-03-06T13:17:56;6.33;;;3.97;;
515;SDS011;244;48.508;9.052;2024-03-06T13:20:24;3.77;;;3.43;;
515;SDS011;244;48.508;9.052;2024-03-06T13:22:52;3.73;;;3.10;;
515;SDS011;244;48.508;9.052;2024-03-06T13:25:19;3.70;;;2.50;;
515;SDS011;244;48.508;9.052;2024-03-06T13:27:46;2.77;;;2.57;;
515;SDS011;244;48.508;9.052;2024-03-06T13:30:13;3.73;;;2.80;;
515;SDS011;244;48.508;9.052;2024-03-06T13:32:40;3.73;;;3.13;;
515;SDS011;244;48.508;9.052;2024-03-06T13:35:10;5.00;;;3.50;;
515;SDS011;244;48.508;9.052;2024-03-06T13:37:39;4.30;;;4.00;;
515;SDS011;244;48.508;9.052;2024-03-06T13:40:08;4.57;;;2.47;;
515;SDS011;244;48.508;9.052;2024-03-06T13:42:38;2.23;;;1.93;;
515;SDS011;244;48.508;9.052;2024-03-06T13:45:05;5.70;;;3.00;;
515;SDS011;244;48.508;9.052;2024-03-06T13:47:36;3.33;;;2.27;;
515;SDS011;244;48.508;9.052;2024-03-06T13:50:06;2.50;;;2.30;;
515;SDS011;244;48.508;9.052;2024-03-06T13:52:34;2.80;;;2.60;;
515;SDS011;244;48.508;9.052;2024-03-06T13:55:01;2.73;;;2.57;;
515;SDS011;244;48.508;9.052;2024-03-06T13:57:32;5.10;;;4.27;;
515;SDS011;244;48.508;9.052;2024-03-06T14:00:02;2.70;;;2.50;;
515;SDS011;244;48.508;9.052;2024-03-06T14:02:31;4.40;;;3.80;;
515;SDS011;244;48.508;9.052;2024-03-06T14:04:58;2.53;;;2.30;;
515;SDS011;244;48.508;9.052;2024-03-06T14:07:29;4.07;;;3.70;;
515;SDS011;244;48.508;9.052;2024-03-06T14:09:56;2.87;;;2.53;;
515;SDS011;244;48.508;9.052;2024-03-06T14:12:23;3.83;;;3.60;;
515;SDS011;244;48.508;9.052;2024-03-06T14:14:51;2.93;;;1.97;;
515;SDS011;244;48.508;9.052;2024-03-06T14:17:18;3.33;;;3.13;;
515;SDS011;244;48.508;9.052;2024-03-06T14:19:45;6.10;;;4.50;;
515;SDS011;244;48.508;9.052;2024-03-06T14:22:12;4.20;;;3.13;;
515;SDS011;244;48.508;9.052;2024-03-06T14:24:39;3.93;;;3.73;;
515;SDS011;244;48.508;9.052;2024-03-06T14:27:06;3.60;;;2.47;;
515;SDS011;244;48.508;9.052;2024-03-06T14:29:33;4.70;;;2.03;;
515;SDS011;244;48.508;9.052;2024-03-06T14:32:01;4.97;;;2.40;;
515;SDS011;244;48.508;9.052;2024-03-06T14:34:28;3.80;;;2.30;;
515;SDS011;244;48.508;9.052;2024-03-06T14:36:55;4.37;;;2.77;;
515;SDS011;244;48.508;9.052;2024-03-06T14:39:22;3.87;;;3.67;;
515;SDS011;244;48.508;9.052;2024-03-06T14:41:51;6.63;;;5.53;;
515;SDS011;244;48.508;9.052;2024-03-06T14:44:42;9.97;;;6.50;;
515;SDS011;244;48.508;9.052;2024-03-06T14:47:11;2.60;;;2.13;;
515;SDS011;244;48.508;9.052;2024-03-06T14:49:39;2.97;;;2.77;;
515;SDS011;244;48.508;9.052;2024-03-06T14:52:09;3.03;;;2.83;;
515;SDS011;244;48.508;9.052;2024-03-06T14:54:36;2.93;;;2.73;;
515;SDS011;244;48.508;9.052;2024-03-06T14:57:03;1.57;;;1.50;;
515;SDS011;244;48.508;9.052;2024-03-06T14:59:31;4.43;;;2.97;;
515;SDS011;244;48.508;9.052;2024-03-06T15:01:57;3.23;;;3.00;;
515;SDS011;244;48.508;9.052;2024-03-06T15:04:26;3.00;;;2.73;;
515;SDS011;244;48.508;9.052;2024-03-06T15:06:53;3.37;;;3.17;;
515;SDS011;244;48.508;9.052;2024-03-06T15:09:19;4.67;;;3.77;;
515;SDS011;244;48.508;9.052;2024-03-06T15:11:47;3.00;;;2.83;;
515;SDS011;244;48.508;9.052;2024-03-06T15:14:16;4.43;;;3.90;;
515;SDS011;244;48.508;9.052;2024-03-06T15:16:44;5.37;;;4.40;;
515;SDS011;244;48.508;9.052;2024-03-06T15:19:11;3.33;;;3.13;;
515;SDS011;244;48.508;9.052;2024-03-06T15:21:39;17.93;;;3.63;;
515;SDS011;244;48.508;9.052;2024-03-06T15:24:06;4.00;;;3.80;;
515;SDS011;244;48.508;9.052;2024-03-06T15:26:33;5.87;;;5.57;;
515;SDS011;244;48.508;9.052;2024-03-06T15:29:01;2.93;;;2.73;;
515;SDS011;244;48.508;9.052;2024-03-06T15:31:29;4.23;;;3.30;;
515;SDS011;244;48.508;9.052;2024-03-06T15:33:56;5.30;;;5.00;;
515;SDS011;244;48.508;9.052;2024-03-06T15:36:23;3.07;;;2.87;;
515;SDS011;244;48.508;9.052;2024-03-06T15:38:51;3.40;;;2.40;;
515;SDS011;244;48.508;9.052;2024-03-06T15:41:20;4.10;;;2.20;;
515;SDS011;244;48.508;9.052;2024-03-06T15:43:47;5.07;;;2.73;;
515;SDS011;244;48.508;9.052;2024-03-06T15:46:14;3.27;;;3.07;;
515;SDS011;244;48.508;9.052;2024-03-06T15:48:41;4.10;;;3.90;;
515;SDS011;244;48.508;9.052;2024-03-06T15:51:08;4.27;;;4.00;;
515;SDS011;244;48.508;9.052;2024-03-06T15:53:35;5.93;;;4.20;;
515;SDS011;244;48.508;9.052;2024-03-06T15:56:03;5.53;;;2.60;;